createdAt,value
2022-12-13T00:05:15.873Z,4.2
2022-12-13T00:15:23.719Z,3.56
2022-12-13T00:25:32.026Z,6.55
2022-12-13T00:35:39.822Z,5.55
2022-12-13T00:45:47.623Z,2.59
2022-12-13T00:55:55.351Z,4.91
2022-12-13T01:06:14.613Z,4.73
2022-12-13T01:16:09.693Z,5.26
2022-12-13T01:26:17.575Z,6.27
2022-12-13T01:36:27.179Z,10.89
2022-12-13T01:46:32.525Z,6.06
2022-12-13T01:56:40.315Z,6.7
2022-12-13T02:06:47.711Z,7.39
2022-12-13T02:16:55.569Z,9.16
2022-12-13T02:27:03.340Z,12.29
2022-12-13T02:37:17.759Z,14.55
2022-12-13T02:47:21.913Z,17.09
2022-12-13T02:57:22.483Z,13.67
2022-12-13T03:07:30.317Z,15.19
2022-12-13T03:17:38.132Z,11.71
2022-12-13T03:27:45.955Z,11.87
2022-12-13T03:37:53.914Z,14.27
2022-12-13T03:48:01.749Z,14.89
2022-12-13T03:58:08.674Z,14.15
2022-12-13T04:08:21.523Z,13.12
2022-12-13T04:18:21.318Z,18.24
2022-12-13T04:28:28.652Z,21.3
2022-12-13T04:38:36.461Z,17.93
2022-12-13T04:48:44.364Z,16.03
2022-12-13T04:58:52.312Z,20.79
2022-12-13T05:09:00.733Z,16.92
2022-12-13T05:19:06.546Z,13.17
2022-12-13T05:29:14.652Z,12.62
2022-12-13T05:39:28.719Z,13.84
2022-12-13T05:49:28.543Z,10.5
2022-12-13T05:59:36.781Z,14.54
2022-12-13T06:09:44.223Z,18.9
2022-12-13T06:19:52.229Z,21.23
2022-12-13T06:30:02.378Z,23.92
2022-12-13T06:40:07.198Z,31.51
2022-12-13T06:50:15.165Z,44.55
2022-12-13T07:00:23.215Z,62
2022-12-13T07:10:28.886Z,37.77
2022-12-13T07:20:38.556Z,48.02
2022-12-13T07:30:46.344Z,42.91
2022-12-13T07:40:54.603Z,37.87
2022-12-13T07:51:08.264Z,41.48
2022-12-13T08:01:08.295Z,41.86
2022-12-13T08:11:16.280Z,35.4
2022-12-13T08:21:52.194Z,37.94
2022-12-13T08:31:33.893Z,33.55
2022-12-13T08:41:39.384Z,29.86
2022-12-13T08:51:45.357Z,32.82
2022-12-13T09:01:54.000Z,29.03
2022-12-13T09:12:00.034Z,24.55
2022-12-13T09:22:05.388Z,28.33
2022-12-13T09:32:13.646Z,37.26
2022-12-13T09:42:21.223Z,30.93
2022-12-13T09:52:33.361Z,30.35
2022-12-13T10:02:36.030Z,23.01
2022-12-13T10:12:45.166Z,12.55
2022-12-13T10:23:30.537Z,11.76
2022-12-13T10:33:03.529Z,9.04
2022-12-13T10:43:11.836Z,13.63
2022-12-13T10:53:22.747Z,17.55
2022-12-13T11:03:28.267Z,17.26
2022-12-13T11:13:36.358Z,13.93
2022-12-13T11:23:44.448Z,14.11
2022-12-13T11:33:51.551Z,17.7
2022-12-13T11:44:04.299Z,11.72
2022-12-13T12:04:05.777Z,15.68
2022-12-13T12:14:15.144Z,17.56
2022-12-13T12:24:24.374Z,12.03
2022-12-13T12:34:32.488Z,17.99
2022-12-13T12:44:40.617Z,12.03
2022-12-13T12:54:50.332Z,7.95
2022-12-13T13:14:51.511Z,8.17
2022-12-13T13:24:59.603Z,7.99
2022-12-13T13:35:07.169Z,9.92
2022-12-13T13:45:15.353Z,6.55
2022-12-13T13:55:23.730Z,6.36
2022-12-13T14:05:34.391Z,8.6
2022-12-13T14:15:32.533Z,11.45
2022-12-13T14:25:40.111Z,12.36
2022-12-13T14:35:46.865Z,9.45
2022-12-13T14:45:57.394Z,12.11
2022-12-13T14:56:01.931Z,18.15
2022-12-13T15:06:10.170Z,15.76
2022-12-13T15:16:17.887Z,28.48
2022-12-13T15:26:27.828Z,14.56
2022-12-13T15:36:33.525Z,18.15
2022-12-13T15:46:41.806Z,19.51
2022-12-13T15:56:51.034Z,16.46
2022-12-13T16:06:59.168Z,17.44
2022-12-13T16:17:08.205Z,25.13
2022-12-13T16:27:13.882Z,23.78
2022-12-13T16:37:25.862Z,19.31
2022-12-13T16:47:36.582Z,19
2022-12-13T16:57:34.345Z,20.08
2022-12-13T17:07:42.743Z,21.35
2022-12-13T17:17:51.057Z,21.54
2022-12-13T17:28:02.231Z,18.92
2022-12-13T17:48:02.573Z,20.03
2022-12-13T17:58:10.175Z,23.94
2022-12-13T18:08:18.391Z,21.92
2022-12-13T18:18:26.971Z,24.77
2022-12-13T18:28:34.915Z,23.01
2022-12-13T18:38:42.127Z,26.74
2022-12-13T18:48:50.110Z,27.03
2022-12-13T18:58:58.130Z,29.89
2022-12-13T19:09:06.303Z,37.08
2022-12-13T19:19:14.480Z,31.11
2022-12-13T19:29:24.919Z,34.22
2022-12-13T19:39:33.147Z,32.51
2022-12-13T19:49:41.198Z,35.05
2022-12-13T19:59:49.405Z,27.52
2022-12-13T20:09:57.404Z,24.46
2022-12-13T20:20:05.432Z,19.65
2022-12-13T20:30:13.379Z,25.99
2022-12-13T20:40:25.990Z,17.59
2022-12-13T20:50:28.025Z,17.56
2022-12-13T21:00:35.941Z,16.9
2022-12-13T21:10:43.887Z,16.74
2022-12-13T21:20:52.960Z,14.53
2022-12-13T21:31:03.176Z,16.7
2022-12-13T21:41:02.881Z,13.92
2022-12-13T21:51:11.299Z,23.23
2022-12-13T22:01:19.460Z,27.41
2022-12-13T22:11:27.006Z,32.69
2022-12-13T22:21:35.073Z,16.62
2022-12-13T22:31:43.222Z,26.19
2022-12-13T22:41:50.327Z,24.85
2022-12-13T22:51:58.439Z,27.83
2022-12-13T23:02:22.293Z,41.38
2022-12-13T23:12:13.522Z,39.82
2022-12-13T23:22:14.148Z,36.23
2022-12-13T23:32:22.228Z,33.98
2022-12-13T23:42:30.359Z,30.65
2022-12-13T23:52:38.371Z,32.87
